createdAt,value
2018-05-11T00:00:03.071Z,21.9
2018-05-11T00:00:53.452Z,21.9
2018-05-11T00:01:43.243Z,21.9
2018-05-11T00:02:33.296Z,21.9
2018-05-11T00:03:23.621Z,21.9
2018-05-11T00:04:13.959Z,21.9
2018-05-11T00:05:03.819Z,21.9
2018-05-11T00:05:54.126Z,21.9
2018-05-11T00:06:43.628Z,21.9
2018-05-11T00:07:33.951Z,21.9
2018-05-11T00:08:24.332Z,21.9
2018-05-11T00:09:13.276Z,21.9
2018-05-11T00:10:04.131Z,21.9
2018-05-11T00:10:54.098Z,22
2018-05-11T00:11:44.532Z,21.9
2018-05-11T00:12:34.054Z,21.9
2018-05-11T00:13:24.415Z,21.9
2018-05-11T00:14:14.456Z,21.9
2018-05-11T00:15:04.053Z,21.9
2018-05-11T00:15:54.602Z,21.9
2018-05-11T00:16:44.640Z,21.9
2018-05-11T00:17:34.705Z,21.9
2018-05-11T00:18:24.508Z,21.9
2018-05-11T00:19:14.864Z,21.9
2018-05-11T00:20:04.921Z,21.9
2018-05-11T00:20:54.424Z,21.9
2018-05-11T00:21:45.045Z,22
2018-05-11T00:22:35.132Z,21.9
2018-05-11T00:23:25.760Z,21.9
2018-05-11T00:24:14.679Z,21.9
2018-05-11T00:25:05.366Z,21.9
2018-05-11T00:25:54.546Z,21.9
2018-05-11T00:26:45.695Z,21.9
2018-05-11T00:27:34.967Z,21.9
2018-05-11T00:28:25.528Z,21.9
2018-05-11T00:29:15.606Z,21.9
2018-05-11T00:30:05.697Z,22
2018-05-11T00:30:56.111Z,21.9
2018-05-11T00:31:45.797Z,21.9
2018-05-11T00:32:35.984Z,21.9
2018-05-11T00:33:25.717Z,21.9
2018-05-11T00:34:16.268Z,21.9
2018-05-11T00:35:06.066Z,21.9
2018-05-11T00:35:55.843Z,22
2018-05-11T00:36:45.902Z,22
2018-05-11T00:37:35.972Z,21.9
2018-05-11T00:38:24.964Z,21.9
2018-05-11T00:39:16.389Z,21.9
2018-05-11T00:40:06.529Z,21.9
2018-05-11T00:40:56.496Z,21.9
2018-05-11T00:41:45.438Z,21.9
2018-05-11T00:42:36.350Z,22
2018-05-11T00:43:26.416Z,21.9
2018-05-11T00:44:16.219Z,21.9
2018-05-11T00:45:06.497Z,21.9
2018-05-11T00:45:56.629Z,21.9
2018-05-11T00:46:46.961Z,22
2018-05-11T00:47:36.977Z,21.9
2018-05-11T00:48:26.751Z,21.9
2018-05-11T00:49:17.479Z,21.9
2018-05-11T00:50:06.993Z,21.9
2018-05-11T00:50:57.583Z,21.9
2018-05-11T00:51:46.549Z,21.9
2018-05-11T00:52:37.113Z,21.9
2018-05-11T00:53:27.752Z,21.9
2018-05-11T00:54:17.196Z,21.9
2018-05-11T00:55:07.300Z,21.9
2018-05-11T00:55:56.568Z,21.9
2018-05-11T00:56:47.702Z,21.9
2018-05-11T00:57:38.021Z,21.9
2018-05-11T00:58:27.810Z,21.9
2018-05-11T00:59:17.931Z,22
2018-05-11T01:00:07.931Z,21.9
2018-05-11T01:00:58.062Z,21.9
2018-05-11T01:01:48.107Z,21.9
2018-05-11T01:02:37.966Z,21.9
2018-05-11T01:03:27.416Z,21.9
2018-05-11T01:04:17.440Z,21.9
2018-05-11T01:05:07.597Z,21.9
2018-05-11T01:05:58.187Z,21.9
2018-05-11T01:06:48.507Z,21.9
2018-05-11T01:07:38.643Z,21.9
2018-05-11T01:08:26.786Z,21.9
2018-05-11T01:09:17.128Z,22
2018-05-11T01:10:07.651Z,22
2018-05-11T01:10:57.535Z,22
2018-05-11T01:11:47.313Z,21.9
2018-05-11T01:12:37.288Z,22
2018-05-11T01:13:27.657Z,21.9
2018-05-11T01:14:18.280Z,21.9
2018-05-11T01:15:08.566Z,21.9
2018-05-11T01:15:57.870Z,21.9
2018-05-11T01:16:48.418Z,22
2018-05-11T01:17:39.537Z,21.9
2018-05-11T01:18:29.337Z,22
2018-05-11T01:19:19.375Z,22
2018-05-11T01:20:09.723Z,21.9
2018-05-11T01:20:58.935Z,22
2018-05-11T01:21:49.558Z,21.9
2018-05-11T01:22:39.655Z,21.9
2018-05-11T01:23:29.449Z,22
2018-05-11T01:24:19.199Z,22
2018-05-11T01:25:09.838Z,21.9
2018-05-11T01:26:00.222Z,21.9
2018-05-11T01:26:49.697Z,21.9
2018-05-11T01:27:40.059Z,22
2018-05-11T01:28:30.439Z,21.9
2018-05-11T01:29:20.460Z,21.9
2018-05-11T01:30:10.241Z,21.9
2018-05-11T01:31:00.042Z,21.9
2018-05-11T01:31:50.378Z,21.9
2018-05-11T01:32:40.672Z,21.9
2018-05-11T01:33:30.005Z,21.9
2018-05-11T01:34:20.576Z,21.9
2018-05-11T01:35:10.613Z,21.9
2018-05-11T01:35:59.832Z,21.9
2018-05-11T01:36:51.066Z,21.9
2018-05-11T01:37:40.635Z,21.9
2018-05-11T01:38:30.840Z,21.9
2018-05-11T01:39:21.204Z,21.9
2018-05-11T01:40:10.139Z,21.9
2018-05-11T01:41:00.520Z,21.9
2018-05-11T01:41:50.595Z,21.9
2018-05-11T01:42:41.300Z,21.9
2018-05-11T01:43:31.272Z,21.9
2018-05-11T01:44:20.237Z,21.9
2018-05-11T01:45:11.099Z,21.9
2018-05-11T01:46:00.867Z,21.9
2018-05-11T01:46:50.649Z,21.9
2018-05-11T01:47:40.763Z,21.9
2018-05-11T01:48:31.651Z,21.9
2018-05-11T01:49:20.843Z,21.9
2018-05-11T01:50:11.799Z,21.9
2018-05-11T01:51:01.861Z,21.9
2018-05-11T01:51:52.131Z,21.9
2018-05-11T01:52:41.662Z,21.9
2018-05-11T01:53:31.744Z,21.9
2018-05-11T01:54:20.447Z,21.9
2018-05-11T01:55:11.909Z,21.9
2018-05-11T01:56:01.744Z,21.9
2018-05-11T01:56:51.425Z,21.9
2018-05-11T01:57:41.296Z,21.9
2018-05-11T01:58:32.436Z,21.9
2018-05-11T01:59:22.718Z,21.9
2018-05-11T02:00:12.319Z,21.9
2018-05-11T02:01:02.428Z,21.9
2018-05-11T02:01:52.461Z,21.9
2018-05-11T02:02:42.403Z,21.9
2018-05-11T02:03:33.071Z,21.9
2018-05-11T02:04:22.055Z,21.9
2018-05-11T02:05:12.656Z,21.9
2018-05-11T02:06:01.959Z,21.9
2018-05-11T02:06:52.501Z,21.9
2018-05-11T02:07:42.889Z,21.9
2018-05-11T02:08:32.623Z,21.9
2018-05-11T02:09:22.656Z,21.9
2018-05-11T02:10:13.052Z,21.9
2018-05-11T02:11:03.628Z,21.9
2018-05-11T02:11:52.906Z,21.9
2018-05-11T02:12:42.878Z,21.9
2018-05-11T02:13:32.998Z,21.9
2018-05-11T02:14:23.894Z,21.9
2018-05-11T02:15:12.268Z,21.9
2018-05-11T02:16:04.028Z,21.9
2018-05-11T02:16:53.193Z,21.9
2018-05-11T02:17:43.020Z,21.9
2018-05-11T02:18:34.060Z,21.9
2018-05-11T02:19:23.399Z,21.9
2018-05-11T02:20:14.285Z,21.9
2018-05-11T02:21:03.510Z,21.9
2018-05-11T02:21:53.868Z,21.9
2018-05-11T02:22:44.040Z,21.9
2018-05-11T02:23:34.301Z,21.9
2018-05-11T02:24:24.050Z,21.9
2018-05-11T02:25:14.385Z,21.9
2018-05-11T02:26:04.416Z,21.9
2018-05-11T02:26:53.699Z,21.9
2018-05-11T02:27:44.085Z,21.9
2018-05-11T02:28:34.914Z,21.9
2018-05-11T02:29:24.436Z,21.9
2018-05-11T02:30:14.241Z,21.9
2018-05-11T02:31:04.627Z,21.9
2018-05-11T02:31:54.950Z,21.9
2018-05-11T02:32:44.704Z,21.9
2018-05-11T02:33:35.153Z,21.9
2018-05-11T02:34:25.215Z,21.9
2018-05-11T02:35:14.954Z,21.9
2018-05-11T02:36:05.003Z,21.9
2018-05-11T02:36:54.597Z,21.9
2018-05-11T02:37:45.115Z,21.9
2018-05-11T02:38:35.849Z,21.9
2018-05-11T02:39:24.994Z,21.8
2018-05-11T02:40:15.575Z,21.9
2018-05-11T02:41:05.376Z,21.8
2018-05-11T02:41:55.704Z,21.9
2018-05-11T02:42:45.329Z,21.8
2018-05-11T02:43:35.914Z,21.9
2018-05-11T02:44:26.032Z,21.9
2018-05-11T02:45:15.403Z,21.9
2018-05-11T02:46:06.303Z,21.8
2018-05-11T02:46:55.816Z,21.9
2018-05-11T02:47:45.612Z,21.9
2018-05-11T02:48:36.228Z,21.8
2018-05-11T02:49:26.390Z,21.8
2018-05-11T02:50:16.635Z,21.8
2018-05-11T02:51:06.510Z,21.8
2018-05-11T02:51:56.129Z,21.8
2018-05-11T02:52:46.404Z,21.8
2018-05-11T02:53:36.272Z,21.8
2018-05-11T02:54:26.714Z,21.8
2018-05-11T02:55:16.527Z,21.8
2018-05-11T02:56:06.229Z,21.8
2018-05-11T02:56:56.945Z,21.8
2018-05-11T02:57:46.909Z,21.8
2018-05-11T02:58:36.420Z,21.8
2018-05-11T02:59:26.724Z,21.8
2018-05-11T03:00:16.544Z,21.8
2018-05-11T03:01:06.589Z,21.8
2018-05-11T03:01:56.707Z,21.8
2018-05-11T03:02:46.985Z,21.8
2018-05-11T03:03:37.427Z,21.8
2018-05-11T03:04:26.870Z,21.8
2018-05-11T03:05:16.914Z,21.8
2018-05-11T03:06:07.821Z,21.8
2018-05-11T03:06:57.076Z,21.8
2018-05-11T03:07:47.664Z,21.8
2018-05-11T03:08:37.462Z,21.8
2018-05-11T03:09:26.931Z,21.8
2018-05-11T03:10:16.807Z,21.8
2018-05-11T03:11:07.104Z,21.8
2018-05-11T03:11:57.159Z,21.8
2018-05-11T03:12:47.478Z,21.8
2018-05-11T03:13:38.141Z,21.8
2018-05-11T03:14:28.228Z,21.8
2018-05-11T03:15:17.344Z,21.7
2018-05-11T03:16:07.754Z,21.8
2018-05-11T03:16:57.754Z,21.7
2018-05-11T03:17:48.367Z,21.7
2018-05-11T03:18:40.979Z,21.8
2018-05-11T03:19:28.933Z,21.8
2018-05-11T03:20:18.653Z,21.7
2018-05-11T03:21:07.797Z,21.7
2018-05-11T03:21:58.528Z,21.8
2018-05-11T03:22:48.502Z,21.7
2018-05-11T03:23:37.989Z,21.6
2018-05-11T03:24:28.885Z,21.7
2018-05-11T03:25:19.355Z,21.7
2018-05-11T03:26:08.542Z,21.7
2018-05-11T03:26:59.092Z,21.7
2018-05-11T03:27:48.853Z,21.8
2018-05-11T03:28:38.928Z,21.7
2018-05-11T03:29:29.031Z,21.7
2018-05-11T03:31:18.733Z,21.7
2018-05-11T03:32:08.260Z,21.5
2018-05-11T03:32:58.289Z,21.4
2018-05-11T03:33:47.501Z,21.6
2018-05-11T03:34:38.414Z,21.6
2018-05-11T03:35:28.769Z,21.6
2018-05-11T03:36:18.548Z,21.6
2018-05-11T03:37:08.900Z,21.7
2018-05-11T03:37:58.646Z,21.7
2018-05-11T03:38:48.694Z,21.7
2018-05-11T03:39:37.939Z,21.7
2018-05-11T03:40:29.091Z,21.7
2018-05-11T03:41:19.176Z,21.8
2018-05-11T03:42:08.436Z,21.7
2018-05-11T03:42:59.324Z,21.8
2018-05-11T03:43:49.383Z,21.7
2018-05-11T03:44:38.384Z,21.8
2018-05-11T03:45:28.122Z,21.7
2018-05-11T03:46:19.274Z,21.8
2018-05-11T03:47:09.114Z,21.8
2018-05-11T03:47:58.999Z,21.8
2018-05-11T03:48:48.927Z,21.8
2018-05-11T03:49:39.112Z,21.8
2018-05-11T03:50:28.547Z,21.7
2018-05-11T03:51:18.859Z,21.8
2018-05-11T03:52:09.291Z,21.8
2018-05-11T03:52:58.908Z,21.7
2018-05-11T03:53:49.089Z,21.8
2018-05-11T03:54:38.856Z,21.8
2018-05-11T03:55:29.214Z,21.8
2018-05-11T03:56:19.488Z,21.8
2018-05-11T03:57:09.333Z,21.7
2018-05-11T03:57:59.349Z,21.8
2018-05-11T03:58:50.051Z,21.8
2018-05-11T03:59:39.788Z,21.8
2018-05-11T04:00:30.593Z,21.8
2018-05-11T04:01:20.501Z,21.7
2018-05-11T04:02:10.323Z,21.7
2018-05-11T04:02:59.970Z,21.8
2018-05-11T04:03:50.615Z,21.8
2018-05-11T04:04:39.852Z,21.8
2018-05-11T04:05:31.009Z,21.7
2018-05-11T04:06:20.847Z,21.8
2018-05-11T04:07:11.118Z,21.8
2018-05-11T04:08:00.612Z,21.7
2018-05-11T04:08:51.254Z,21.8
2018-05-11T04:09:41.033Z,21.8
2018-05-11T04:10:31.180Z,21.8
2018-05-11T04:11:21.152Z,21.8
2018-05-11T04:12:10.963Z,21.8
2018-05-11T04:13:01.003Z,21.8
2018-05-11T04:13:51.099Z,21.8
2018-05-11T04:14:41.446Z,21.7
2018-05-11T04:15:31.487Z,21.7
2018-05-11T04:16:21.542Z,21.7
2018-05-11T04:17:11.123Z,21.8
2018-05-11T04:18:02.021Z,21.7
2018-05-11T04:18:51.159Z,21.8
2018-05-11T04:19:41.822Z,21.7
2018-05-11T04:20:32.195Z,21.7
2018-05-11T04:21:21.705Z,21.8
2018-05-11T04:22:12.282Z,21.7
2018-05-11T04:23:01.588Z,21.7
2018-05-11T04:23:51.895Z,21.8
2018-05-11T04:24:42.304Z,21.8
2018-05-11T04:25:32.279Z,21.8
2018-05-11T04:26:22.361Z,21.8
2018-05-11T04:27:12.383Z,21.8
2018-05-11T04:28:02.110Z,21.7
2018-05-11T04:28:52.221Z,21.7
2018-05-11T04:29:42.020Z,21.7
2018-05-11T04:30:31.845Z,21.7
2018-05-11T04:31:22.689Z,21.7
2018-05-11T04:32:12.231Z,21.7
2018-05-11T04:33:03.168Z,21.7
2018-05-11T04:33:52.385Z,21.7
2018-05-11T04:34:42.961Z,21.7
2018-05-11T04:35:32.475Z,21.8
2018-05-11T04:36:23.130Z,21.8
2018-05-11T04:37:13.577Z,21.7
2018-05-11T04:38:03.038Z,21.7
2018-05-11T04:38:52.310Z,21.8
2018-05-11T04:39:42.918Z,21.8
2018-05-11T04:40:32.735Z,21.8
2018-05-11T04:41:22.459Z,21.8
2018-05-11T04:42:12.855Z,21.8
2018-05-11T04:43:02.340Z,21.8
2018-05-11T04:43:52.363Z,21.8
2018-05-11T04:44:42.929Z,21.8
2018-05-11T04:45:32.616Z,21.8
2018-05-11T04:46:23.653Z,21.8
2018-05-11T04:47:14.182Z,21.8
2018-05-11T04:48:03.709Z,21.8
2018-05-11T04:48:54.404Z,21.8
2018-05-11T04:49:44.037Z,21.8
2018-05-11T04:50:34.201Z,21.8
2018-05-11T04:51:23.947Z,21.8
2018-05-11T04:52:14.285Z,21.8
2018-05-11T04:53:04.378Z,21.8
2018-05-11T04:53:54.431Z,21.7
2018-05-11T04:54:44.713Z,21.7
2018-05-11T04:55:34.285Z,21.8
2018-05-11T04:56:24.619Z,21.7
2018-05-11T04:57:14.086Z,21.8
2018-05-11T04:58:04.765Z,21.7
2018-05-11T04:58:54.779Z,21.7
2018-05-11T04:59:44.375Z,21.7
2018-05-11T05:00:34.914Z,21.8
2018-05-11T05:01:25.004Z,21.7
2018-05-11T05:02:14.788Z,21.8
2018-05-11T05:03:05.362Z,21.8
2018-05-11T05:03:54.974Z,21.7
2018-05-11T05:04:45.265Z,21.7
2018-05-11T05:05:35.809Z,21.8
2018-05-11T05:06:25.341Z,21.8
2018-05-11T05:07:15.508Z,21.8
2018-05-11T05:08:04.916Z,21.8
2018-05-11T05:08:55.551Z,21.8
2018-05-11T05:09:45.890Z,21.8
2018-05-11T05:10:35.742Z,21.7
2018-05-11T05:11:25.701Z,21.8
2018-05-11T05:12:15.709Z,21.8
2018-05-11T05:13:05.243Z,21.8
2018-05-11T05:13:55.467Z,21.8
2018-05-11T05:14:43.992Z,21.8
2018-05-11T05:15:34.410Z,21.8
2018-05-11T05:16:23.689Z,21.8
2018-05-11T05:17:14.842Z,21.8
2018-05-11T05:18:04.469Z,21.8
2018-05-11T05:18:55.274Z,21.8
2018-05-11T05:19:44.874Z,21.8
2018-05-11T05:20:35.464Z,21.8
2018-05-11T05:21:25.530Z,21.8
2018-05-11T05:22:16.791Z,21.8
2018-05-11T05:23:06.714Z,21.8
2018-05-11T05:23:56.697Z,21.8
2018-05-11T05:24:46.764Z,21.8
2018-05-11T05:25:36.565Z,21.8
2018-05-11T05:26:26.883Z,21.8
2018-05-11T05:27:16.642Z,21.8
2018-05-11T05:28:07.003Z,21.8
2018-05-11T05:28:57.046Z,21.8
2018-05-11T05:29:46.370Z,21.8
2018-05-11T05:30:36.396Z,21.8
2018-05-11T05:31:26.728Z,21.8
2018-05-11T05:32:16.811Z,21.8
2018-05-11T05:33:07.416Z,21.8
2018-05-11T05:33:57.131Z,21.8
2018-05-11T05:34:47.524Z,21.8
2018-05-11T05:35:37.063Z,21.8
2018-05-11T05:36:26.274Z,21.8
2018-05-11T05:37:17.229Z,21.8
2018-05-11T05:38:06.684Z,21.8
2018-05-11T05:38:56.749Z,21.8
2018-05-11T05:39:47.191Z,21.8
2018-05-11T05:40:37.944Z,21.8
2018-05-11T05:41:27.820Z,21.8
2018-05-11T05:42:18.291Z,21.8
2018-05-11T05:43:07.839Z,21.8
2018-05-11T05:43:57.186Z,21.8
2018-05-11T05:44:48.086Z,21.8
2018-05-11T05:45:38.289Z,21.8
2018-05-11T05:46:28.087Z,21.8
2018-05-11T05:47:17.723Z,21.8
2018-05-11T05:48:08.741Z,21.8
2018-05-11T05:48:58.790Z,21.8
2018-05-11T05:49:47.813Z,21.8
2018-05-11T05:50:38.968Z,21.8
2018-05-11T05:51:27.145Z,21.8
2018-05-11T05:52:19.116Z,21.8
2018-05-11T05:53:08.348Z,21.8
2018-05-11T05:53:59.192Z,21.8
2018-05-11T05:54:49.233Z,21.8
2018-05-11T05:55:38.455Z,21.8
2018-05-11T05:56:28.867Z,21.8
2018-05-11T05:57:17.759Z,21.8
2018-05-11T05:58:08.944Z,21.8
2018-05-11T05:58:59.277Z,21.8
2018-05-11T05:59:49.196Z,21.8
2018-05-11T06:00:39.170Z,21.8
2018-05-11T06:01:29.499Z,21.8
2018-05-11T06:02:19.595Z,21.8
2018-05-11T06:03:09.333Z,21.8
2018-05-11T06:03:59.395Z,21.8
2018-05-11T06:04:50.720Z,21.8
2018-05-11T06:05:39.035Z,21.8
2018-05-11T06:06:29.112Z,21.8
2018-05-11T06:07:19.192Z,21.8
2018-05-11T06:08:10.380Z,21.8
2018-05-11T06:09:00.079Z,21.8
2018-05-11T06:09:50.110Z,21.8
2018-05-11T06:10:39.437Z,21.9
2018-05-11T06:11:30.627Z,21.9
2018-05-11T06:12:20.307Z,21.9
2018-05-11T06:13:09.674Z,21.9
2018-05-11T06:13:59.777Z,21.9
2018-05-11T06:14:50.059Z,21.9
2018-05-11T06:15:40.324Z,21.9
2018-05-11T06:16:30.485Z,21.9
2018-05-11T06:17:20.305Z,21.9
2018-05-11T06:18:09.412Z,21.8
2018-05-11T06:19:00.128Z,21.9
2018-05-11T06:19:50.651Z,21.8
2018-05-11T06:20:40.641Z,21.9
2018-05-11T06:21:31.242Z,21.9
2018-05-11T06:22:21.069Z,21.9
2018-05-11T06:23:11.174Z,21.9
2018-05-11T06:24:01.006Z,21.9
2018-05-11T06:24:52.249Z,21.9
2018-05-11T06:25:41.036Z,21.9
2018-05-11T06:26:30.626Z,21.9
2018-05-11T06:27:20.914Z,21.9
2018-05-11T06:28:11.214Z,21.9
2018-05-11T06:29:01.591Z,21.9
2018-05-11T06:29:50.519Z,21.9
2018-05-11T06:30:41.444Z,21.9
2018-05-11T06:31:30.913Z,21.9
2018-05-11T06:32:21.570Z,21.9
2018-05-11T06:33:11.636Z,21.9
2018-05-11T06:34:01.938Z,21.9
2018-05-11T06:34:52.338Z,22
2018-05-11T06:35:41.560Z,22.1
2018-05-11T06:36:31.564Z,22.1
2018-05-11T06:37:21.950Z,22.1
2018-05-11T06:38:11.449Z,22.1
2018-05-11T06:39:02.338Z,22.1
2018-05-11T06:39:51.594Z,22.1
2018-05-11T06:40:42.931Z,22.1
2018-05-11T06:41:32.868Z,22.1
2018-05-11T06:42:22.829Z,22.1
2018-05-11T06:43:12.604Z,22.1
2018-05-11T06:44:02.664Z,22.1
2018-05-11T06:44:52.262Z,22.1
2018-05-11T06:45:42.803Z,22.1
2018-05-11T06:46:32.889Z,22.1
2018-05-11T06:47:23.248Z,22.1
2018-05-11T06:48:12.545Z,22.1
2018-05-11T06:49:03.079Z,22.1
2018-05-11T06:49:52.293Z,22.1
2018-05-11T06:50:42.767Z,22.1
2018-05-11T06:51:33.635Z,22.1
2018-05-11T06:52:23.344Z,22.1
2018-05-11T06:53:13.675Z,22.1
2018-05-11T06:54:03.757Z,22
2018-05-11T06:54:52.922Z,22.1
2018-05-11T06:55:43.662Z,22.1
2018-05-11T06:56:33.610Z,22
2018-05-11T06:57:23.145Z,22
2018-05-11T06:58:14.123Z,22.1
2018-05-11T06:59:03.300Z,22
2018-05-11T06:59:54.187Z,22.1
2018-05-11T07:00:43.660Z,22.1
2018-05-11T07:01:35.091Z,22.1
2018-05-11T07:02:24.102Z,22.1
2018-05-11T07:03:13.969Z,22.1
2018-05-11T07:04:02.953Z,22.1
2018-05-11T07:04:54.088Z,22
2018-05-11T07:05:43.272Z,22
2018-05-11T07:06:34.112Z,22
2018-05-11T07:07:26.183Z,22
2018-05-11T07:08:14.051Z,22
2018-05-11T07:09:04.297Z,22.1
2018-05-11T07:09:54.374Z,22.1
2018-05-11T07:10:44.611Z,22.1
2018-05-11T07:11:34.033Z,22.1
2018-05-11T07:12:24.651Z,22.1
2018-05-11T07:13:14.680Z,22.1
2018-05-11T07:14:04.512Z,22.1
2018-05-11T07:14:54.540Z,22.1
2018-05-11T07:15:45.403Z,22
2018-05-11T07:16:34.160Z,22
2018-05-11T07:17:25.475Z,22
2018-05-11T07:18:15.303Z,22
2018-05-11T07:19:05.609Z,22
2018-05-11T07:19:55.726Z,22.1
2018-05-11T07:20:45.472Z,22
2018-05-11T07:21:35.800Z,22
2018-05-11T07:22:25.870Z,22
2018-05-11T07:23:15.698Z,22
2018-05-11T07:24:05.145Z,22.1
2018-05-11T07:24:56.100Z,22.1
2018-05-11T07:25:47.540Z,22.1
2018-05-11T07:26:36.003Z,22.1
2018-05-11T07:27:25.391Z,22.1
2018-05-11T07:28:16.332Z,22.1
2018-05-11T07:29:06.392Z,22.1
2018-05-11T07:29:55.138Z,22.1
2018-05-11T07:30:45.690Z,22.1
2018-05-11T07:31:35.240Z,22.1
2018-05-11T07:32:25.616Z,22.1
2018-05-11T07:33:15.598Z,22.1
2018-05-11T07:34:06.552Z,22.1
2018-05-11T07:34:55.992Z,22.1
2018-05-11T07:35:45.437Z,22.1
2018-05-11T07:36:35.366Z,22
2018-05-11T07:37:25.138Z,22.1
2018-05-11T07:38:16.604Z,22
2018-05-11T07:39:05.994Z,22.1
2018-05-11T07:39:56.372Z,22
2018-05-11T07:40:45.033Z,22
2018-05-11T07:41:36.441Z,22
2018-05-11T07:42:26.083Z,22.1
2018-05-11T07:43:18.134Z,22
2018-05-11T07:44:07.037Z,22.1
2018-05-11T07:44:56.397Z,22.1
2018-05-11T07:45:46.286Z,22.1
2018-05-11T07:46:37.166Z,22.2
2018-05-11T07:47:27.066Z,22.2
2018-05-11T07:48:17.256Z,22.2
2018-05-11T07:49:07.629Z,22.2
2018-05-11T07:49:57.746Z,22.2
2018-05-11T07:50:48.027Z,22.2
2018-05-11T07:51:39.144Z,22.3
2018-05-11T07:52:27.992Z,22.3
2018-05-11T07:53:17.387Z,22.3
2018-05-11T07:54:08.304Z,22.3
2018-05-11T07:54:58.408Z,22.1
2018-05-11T07:55:47.877Z,22.2
2018-05-11T07:56:37.736Z,22.2
2018-05-11T07:57:28.549Z,22.3
2018-05-11T07:58:17.751Z,22.3
2018-05-11T07:59:08.447Z,22.3
2018-05-11T07:59:58.176Z,22.3
2018-05-11T08:00:48.895Z,22.3
2018-05-11T08:01:37.745Z,22.3
2018-05-11T08:02:28.644Z,22.4
2018-05-11T08:03:18.689Z,22.3
2018-05-11T08:04:08.678Z,22.2
2018-05-11T08:04:59.146Z,22.3
2018-05-11T08:05:49.146Z,22.3
2018-05-11T08:06:37.926Z,22.3
2018-05-11T08:07:29.066Z,22.3
2018-05-11T08:08:18.619Z,22.3
2018-05-11T08:09:09.435Z,22.3
2018-05-11T08:09:58.947Z,22.3
2018-05-11T08:10:49.284Z,22.3
2018-05-11T08:11:38.806Z,22.2
2018-05-11T08:12:29.403Z,22.3
2018-05-11T08:13:19.217Z,22.3
2018-05-11T08:14:10.877Z,22.3
2018-05-11T08:14:59.344Z,22.4
2018-05-11T08:15:48.896Z,22.3
2018-05-11T08:16:39.191Z,22.3
2018-05-11T08:17:29.846Z,22.3
2018-05-11T08:18:18.430Z,22.4
2018-05-11T08:19:09.194Z,22.2
2018-05-11T08:19:59.327Z,22.2
2018-05-11T08:20:49.908Z,22.3
2018-05-11T08:21:38.797Z,22.3
2018-05-11T08:22:29.645Z,22.3
2018-05-11T08:23:19.882Z,22.3
2018-05-11T08:24:09.551Z,22.4
2018-05-11T08:24:59.629Z,22.4
2018-05-11T08:25:48.931Z,22.4
2018-05-11T08:26:39.936Z,22.4
2018-05-11T08:27:28.939Z,22.4
2018-05-11T08:28:18.654Z,22.3
2018-05-11T08:29:09.487Z,22.3
2018-05-11T08:29:58.910Z,22.1
2018-05-11T08:30:49.485Z,22.1
2018-05-11T08:31:39.426Z,22.3
2018-05-11T08:32:28.633Z,22.4
2018-05-11T08:33:19.261Z,22.3
2018-05-11T08:34:08.701Z,22.3
2018-05-11T08:34:59.037Z,22.4
2018-05-11T08:35:51.073Z,22.4
2018-05-11T08:36:39.916Z,22.4
2018-05-11T08:37:29.383Z,22.4
2018-05-11T08:38:19.789Z,22.4
2018-05-11T08:39:08.623Z,22.4
2018-05-11T08:40:00.806Z,22.2
2018-05-11T08:40:50.512Z,22.1
2018-05-11T08:41:41.926Z,22.1
2018-05-11T08:42:31.727Z,22.1
2018-05-11T08:43:20.957Z,22.3
2018-05-11T08:44:11.534Z,22.4
2018-05-11T08:45:02.208Z,22.5
2018-05-11T08:45:52.068Z,22.4
2018-05-11T08:46:42.011Z,22.4
2018-05-11T08:47:31.261Z,22.4
2018-05-11T08:48:22.215Z,22.4
2018-05-11T08:49:12.213Z,22.3
2018-05-11T08:50:02.533Z,22.1
2018-05-11T08:50:51.523Z,22.1
2018-05-11T08:51:42.658Z,22.3
2018-05-11T08:52:32.190Z,22.3
2018-05-11T08:53:21.974Z,22.3
2018-05-11T08:54:11.770Z,22.4
2018-05-11T08:55:02.655Z,22.4
2018-05-11T08:55:53.417Z,22.4
2018-05-11T08:56:42.228Z,22.4
2018-05-11T08:57:32.872Z,22.4
2018-05-11T08:58:22.655Z,22.5
2018-05-11T08:59:13.232Z,22.6
2018-05-11T09:00:03.074Z,22.6
2018-05-11T09:00:53.092Z,22.6
2018-05-11T09:01:43.152Z,22.7
2018-05-11T09:02:32.985Z,22.8
2018-05-11T09:03:23.695Z,22.7
2018-05-11T09:04:13.397Z,22.6
2018-05-11T09:05:02.926Z,22.6
2018-05-11T09:05:53.002Z,22.6
2018-05-11T09:06:43.617Z,22.4
2018-05-11T09:07:33.597Z,22.3
2018-05-11T09:08:24.277Z,22.3
2018-05-11T09:09:13.442Z,22.3
2018-05-11T09:10:03.784Z,22.3
2018-05-11T09:10:53.311Z,22.4
2018-05-11T09:11:43.896Z,22.4
2018-05-11T09:12:33.046Z,22.4
2018-05-11T09:13:23.755Z,22.3
2018-05-11T09:14:13.809Z,22.5
2018-05-11T09:15:04.314Z,22.5
2018-05-11T09:15:52.794Z,22.4
2018-05-11T09:16:44.075Z,22.3
2018-05-11T09:17:33.537Z,22.3
2018-05-11T09:18:24.484Z,22.4
2018-05-11T09:19:14.262Z,22.5
2018-05-11T09:20:04.545Z,22.4
2018-05-11T09:20:55.011Z,22.5
2018-05-11T09:21:44.704Z,22.6
2018-05-11T09:22:34.825Z,22.6
2018-05-11T09:23:25.162Z,22.6
2018-05-11T09:24:14.861Z,22.6
2018-05-11T09:25:04.996Z,22.6
2018-05-11T09:25:54.463Z,22.7
2018-05-11T09:26:44.879Z,22.7
2018-05-11T09:27:34.864Z,22.7
2018-05-11T09:28:25.224Z,22.7
2018-05-11T09:29:14.715Z,22.7
2018-05-11T09:30:05.081Z,22.7
2018-05-11T09:30:55.401Z,22.8
2018-05-11T09:31:45.749Z,22.7
2018-05-11T09:32:35.505Z,22.6
2018-05-11T09:33:25.312Z,22.6
2018-05-11T09:34:15.742Z,22.6
2018-05-11T09:35:05.444Z,22.7
2018-05-11T09:35:55.764Z,22.8
2018-05-11T09:36:45.772Z,22.8
2018-05-11T09:37:35.615Z,22.6
2018-05-11T09:38:26.186Z,22.6
2018-05-11T09:39:16.393Z,22.6
2018-05-11T09:40:06.323Z,22.6
2018-05-11T09:40:55.889Z,22.7
2018-05-11T09:41:46.199Z,22.7
2018-05-11T09:42:36.250Z,22.8
2018-05-11T09:43:25.775Z,22.7
2018-05-11T09:44:16.074Z,22.6
2018-05-11T09:45:06.159Z,22.4
2018-05-11T09:45:56.278Z,22.4
2018-05-11T09:46:46.573Z,22.4
2018-05-11T09:47:36.603Z,22.4
2018-05-11T09:48:26.415Z,22.4
2018-05-11T09:49:16.507Z,22.5
2018-05-11T09:50:06.569Z,22.5
2018-05-11T09:50:56.918Z,22.5
2018-05-11T09:51:46.706Z,22.6
2018-05-11T09:52:36.440Z,22.5
2018-05-11T09:53:26.806Z,22.5
2018-05-11T09:54:16.306Z,22.6
2018-05-11T09:55:08.478Z,22.8
2018-05-11T09:55:57.323Z,22.7
2018-05-11T09:56:47.109Z,22.6
2018-05-11T09:57:37.674Z,22.7
2018-05-11T09:58:27.721Z,22.7
2018-05-11T09:59:16.530Z,22.7
2018-05-11T10:00:07.072Z,22.6
2018-05-11T10:00:59.627Z,22.6
2018-05-11T10:01:47.116Z,22.7
2018-05-11T10:02:37.559Z,22.8
2018-05-11T10:03:27.879Z,22.9
2018-05-11T10:04:16.874Z,22.8
2018-05-11T10:05:06.946Z,22.6
2018-05-11T10:05:57.609Z,22.8
2018-05-11T10:06:48.139Z,22.8
2018-05-11T10:07:37.424Z,22.8
2018-05-11T10:08:28.251Z,22.6
2018-05-11T10:09:17.802Z,22.6
2018-05-11T10:10:08.140Z,22.6
2018-05-11T10:10:58.187Z,22.5
2018-05-11T10:11:48.045Z,22.6
2018-05-11T10:12:38.406Z,22.4
2018-05-11T10:13:27.854Z,22.6
2018-05-11T10:14:18.006Z,22.6
2018-05-11T10:15:08.014Z,22.8
2018-05-11T10:15:56.961Z,22.8
2018-05-11T10:16:48.118Z,22.9
2018-05-11T10:17:38.460Z,23.1
2018-05-11T10:18:28.247Z,23.1
2018-05-11T10:19:18.026Z,23.1
2018-05-11T10:20:07.909Z,23.1
2018-05-11T10:20:58.329Z,23.1
2018-05-11T10:21:48.052Z,23.1
2018-05-11T10:22:37.743Z,23
2018-05-11T10:23:27.553Z,22.9
2018-05-11T10:24:18.761Z,22.9
2018-05-11T10:25:07.694Z,22.7
2018-05-11T10:25:57.462Z,22.7
2018-05-11T10:26:48.703Z,22.8
2018-05-11T10:27:38.723Z,22.8
2018-05-11T10:28:28.035Z,22.8
2018-05-11T10:29:18.540Z,22.8
2018-05-11T10:30:08.231Z,22.6
2018-05-11T10:30:59.287Z,22.6
2018-05-11T10:31:48.981Z,22.6
2018-05-11T10:32:39.594Z,22.8
2018-05-11T10:33:29.701Z,22.8
2018-05-11T10:34:19.261Z,22.9
2018-05-11T10:35:09.165Z,22.9
2018-05-11T10:35:59.926Z,22.8
2018-05-11T10:36:48.610Z,22.8
2018-05-11T10:37:40.226Z,22.8
2018-05-11T10:38:29.776Z,22.9
2018-05-11T10:39:20.342Z,22.8
2018-05-11T10:40:10.458Z,22.8
2018-05-11T10:40:59.693Z,22.8
2018-05-11T10:41:50.589Z,22.8
2018-05-11T10:42:39.365Z,22.8
2018-05-11T10:43:30.302Z,22.8
2018-05-11T10:44:19.171Z,22.7
2018-05-11T10:45:10.279Z,22.8
2018-05-11T10:46:00.863Z,22.8
2018-05-11T10:46:49.750Z,22.8
2018-05-11T10:47:40.506Z,22.9
2018-05-11T10:48:32.389Z,22.8
2018-05-11T10:49:20.449Z,22.7
2018-05-11T10:50:11.147Z,22.8
2018-05-11T10:51:01.771Z,22.8
2018-05-11T10:51:51.373Z,22.9
2018-05-11T10:52:41.911Z,22.9
2018-05-11T10:53:30.680Z,22.9
2018-05-11T10:54:20.534Z,22.9
2018-05-11T10:55:11.035Z,22.9
2018-05-11T10:56:00.886Z,22.8
2018-05-11T10:56:51.464Z,22.8
2018-05-11T10:57:40.303Z,22.8
2018-05-11T10:58:31.063Z,22.7
2018-05-11T10:59:20.851Z,22.7
2018-05-11T11:00:12.446Z,22.8
2018-05-11T11:01:01.859Z,22.8
2018-05-11T11:01:52.146Z,22.8
2018-05-11T11:02:42.808Z,22.8
2018-05-11T11:03:32.055Z,22.8
2018-05-11T11:04:21.286Z,22.8
2018-05-11T11:05:12.176Z,22.8
2018-05-11T11:06:02.188Z,22.8
2018-05-11T11:06:52.206Z,22.8
2018-05-11T11:07:42.064Z,22.9
2018-05-11T11:08:32.351Z,22.9
2018-05-11T11:09:22.709Z,22.9